Time;durP1;ratioP1;P1;durP2;ratioP2;P2;SDS_P1;SDS_P2;PMS_P1;PMS_P2;Temp;Humidity;BMP_temperature;BMP_pressure;BME280_temperature;BME280_humidity;BME280_pressure;Samples;Min_cycle;Max_cycle;Signal;HPM_P1;HPM_P2
2022/11/30 00:02:15;;;;;;;;;;;;;;;4.98;76.09;102129.56;4919305;29;3930;-90
2022/11/30 00:04:42;;;;;;;;;;;;;;;4.95;76.00;102132.53;4904836;29;2366;-90
2022/11/30 00:07:10;;;;;;;;;;;;;;;4.98;76.09;102133.06;4923019;29;2239;-91
2022/11/30 00:09:37;;;;;;;;;;;;;;;4.98;75.88;102134.91;4886083;29;4848;-90
2022/11/30 00:12:06;;;;;;;;;;;;;;;4.95;76.00;102133.34;4919270;29;2388;-92
2022/11/30 00:14:33;;;;;;;;;;;;;;;4.91;76.07;102134.63;4923524;29;3693;-90
2022/11/30 00:17:01;;;;;;;;;;;;;;;4.99;75.85;102134.75;4923238;29;2202;-91
2022/11/30 00:19:28;;;;;;;;;;;;;;;5.01;75.88;102137.28;4929514;29;3844;-90
2022/11/30 00:21:56;;;;;;;;;;;;;;;4.98;75.71;102129.56;4928106;29;2599;-91
2022/11/30 00:24:25;;;;;;;;;;;;;;;4.93;76.03;102129.97;4921483;29;4153;-91
2022/11/30 00:26:52;;;;;;;;;;;;;;;5.01;75.74;102131.94;4924426;29;4830;-90
2022/11/30 00:29:18;;;;;;;;;;;;;;;5.04;75.65;102133.47;4923634;29;2323;-90
2022/11/30 00:31:45;;;;;;;;;;;;;;;4.99;75.99;102129.41;4922592;29;3857;-90
2022/11/30 00:34:13;;;;;;;;;;;;;;;5.08;75.67;102130.34;4891214;29;2222;-89
2022/11/30 00:36:40;;;;;;;;;;;;;;;5.01;75.83;102131.94;4924358;29;3805;-90
2022/11/30 00:39:08;;;;;;;;;;;;;;;4.92;75.88;102130.13;4895755;29;1954;-91
2022/11/30 00:41:34;;;;;;;;;;;;;;;5.01;75.63;102139.94;4907517;29;3919;-90
2022/11/30 00:44:03;;;;;;;;;;;;;;;5.11;75.46;102134.56;4924344;29;1927;-91
2022/11/30 00:46:30;;;;;;;;;;;;;;;5.10;75.38;102136.41;4924635;29;2219;-91
2022/11/30 00:49:01;;;;;;;;;;;;;;;5.12;75.49;102137.13;4887407;29;3618;-91
2022/11/30 00:51:28;;;;;;;;;;;;;;;5.15;75.26;102133.31;4921993;29;4191;-91
2022/11/30 00:53:57;;;;;;;;;;;;;;;5.14;75.20;102140.47;4927928;29;1838;-90
2022/11/30 00:56:24;;;;;;;;;;;;;;;5.12;75.20;102141.63;4902069;29;2751;-91
2022/11/30 00:58:50;;;;;;;;;;;;;;;5.20;75.02;102133.69;4919394;29;4444;-89
2022/11/30 01:01:20;;;;;;;;;;;;;;;5.20;75.28;102134.53;4918023;29;3600;-90
2022/11/30 01:03:46;;;;;;;;;;;;;;;5.24;75.02;102140.44;4915318;29;3619;-90
2022/11/30 01:06:13;;;;;;;;;;;;;;;5.24;74.84;102141.28;4884036;29;4551;-90
2022/11/30 01:08:41;;;;;;;;;;;;;;;5.23;74.82;102138.75;4920348;29;2156;-90
2022/11/30 01:11:07;;;;;;;;;;;;;;;5.23;74.95;102134.28;4922296;29;2956;-90
2022/11/30 01:13:35;;;;;;;;;;;;;;;5.19;75.14;102140.88;4922019;29;3664;-91
2022/11/30 01:16:01;;;;;;;;;;;;;;;5.24;74.83;102143.97;4899925;29;1778;-90
2022/11/30 01:18:28;;;;;;;;;;;;;;;5.20;74.95;102142.53;4892012;29;4642;-90
2022/11/30 01:20:55;;;;;;;;;;;;;;;5.19;75.12;102140.03;4922788;29;3591;-90
2022/11/30 01:23:23;;;;;;;;;;;;;;;5.15;75.19;102144.84;4926710;29;2335;-90
2022/11/30 01:25:50;;;;;;;;;;;;;;;5.32;74.59;102150.38;4890705;29;1563;-90
2022/11/30 01:28:18;;;;;;;;;;;;;;;5.29;74.71;102145.34;4929543;29;1703;-89
2022/11/30 01:30:45;;;;;;;;;;;;;;;5.15;75.35;102141.31;4906999;29;2584;-91
2022/11/30 01:33:14;;;;;;;;;;;;;;;5.30;74.56;102144.38;4890630;29;2337;-90
2022/11/30 01:35:44;;;;;;;;;;;;;;;5.29;74.95;102151.50;4897343;29;1599;-90
2022/11/30 01:38:15;;;;;;;;;;;;;;;5.31;74.71;102154.88;4930321;29;1677;-90
2022/11/30 01:40:49;;;;;;;;;;;;;;;5.27;74.91;102155.34;4936636;29;1987;-89
2022/11/30 01:51:52;;;;;;;;;;;;;;;5.28;74.93;102157.03;4903402;29;3798;-90
2022/11/30 01:54:19;;;;;;;;;;;;;;;5.23;75.24;102154.78;4900267;29;4461;-88
2022/11/30 01:56:46;;;;;;;;;;;;;;;5.19;75.18;102151.56;4883024;29;3683;-88
2022/11/30 01:59:12;;;;;;;;;;;;;;;5.26;74.86;102148.31;4898597;29;4382;-88
2022/11/30 02:01:39;;;;;;;;;;;;;;;5.28;75.00;102147.16;4900435;29;4415;-90
2022/11/30 02:04:05;;;;;;;;;;;;;;;5.27;75.03;102156.19;4879201;29;4624;-88
2022/11/30 02:06:32;;;;;;;;;;;;;;;5.30;74.88;102155.06;4898549;29;4538;-88
2022/11/30 02:08:59;;;;;;;;;;;;;;;5.22;75.11;102151.25;4896191;29;4571;-88
2022/11/30 02:11:26;;;;;;;;;;;;;;;5.32;74.58;102151.22;4872469;29;4370;-88
2022/11/30 02:13:52;;;;;;;;;;;;;;;5.29;74.91;102153.34;4880437;29;4367;-88
2022/11/30 02:16:19;;;;;;;;;;;;;;;5.24;75.00;102148.47;4884510;29;4461;-87
2022/11/30 02:18:46;;;;;;;;;;;;;;;5.19;75.14;102148.88;4887383;29;4527;-87
2022/11/30 02:21:12;;;;;;;;;;;;;;;5.30;74.83;102147.88;4882926;29;4589;-88
2022/11/30 02:23:39;;;;;;;;;;;;;;;5.32;74.71;102150.38;4880629;29;4523;-87
2022/11/30 02:26:05;;;;;;;;;;;;;;;5.32;74.73;102147.72;4897461;29;4405;-87
2022/11/30 02:28:32;;;;;;;;;;;;;;;5.31;74.73;102154.88;4879035;29;4413;-87
2022/11/30 02:30:58;;;;;;;;;;;;;;;5.24;74.97;102148.47;4896404;29;4522;-88
2022/11/30 02:33:25;;;;;;;;;;;;;;;5.23;75.03;102155.63;4875723;29;4516;-87
2022/11/30 02:35:51;;;;;;;;;;;;;;;5.31;74.82;102148.72;4882613;29;4592;-88
2022/11/30 02:38:18;;;;;;;;;;;;;;;5.22;75.19;102155.78;4877963;29;4327;-86
2022/11/30 02:40:44;;;;;;;;;;;;;;;5.21;75.15;102160.28;4895256;29;4516;-87
2022/11/30 02:43:11;;;;;;;;;;;;;;;4.71;75.18;102074.28;4896043;29;4275;-87
2022/11/30 02:45:37;;;;;;;;;;;;;;;5.23;74.96;102157.44;4881668;29;4767;-87
2022/11/30 02:48:04;;;;;;;;;;;;;;;5.26;75.07;102164.31;4900264;29;4397;-86
2022/11/30 02:50:30;;;;;;;;;;;;;;;5.34;74.66;102169.78;4899276;29;4275;-85
2022/11/30 02:52:57;;;;;;;;;;;;;;;5.31;74.71;102168.25;4880209;29;4482;-85
2022/11/30 02:55:24;;;;;;;;;;;;;;;5.23;74.97;102170.81;4879600;29;4545;-86
2022/11/30 02:57:50;;;;;;;;;;;;;;;5.15;75.50;102162.69;4883001;29;4457;-86
2022/11/30 03:00:17;;;;;;;;;;;;;;;5.23;74.94;102169.00;4878308;29;4421;-85
2022/11/30 03:02:43;;;;;;;;;;;;;;;5.28;74.78;102173.06;4879441;29;4523;-86
2022/11/30 03:05:10;;;;;;;;;;;;;;;5.21;75.11;102165.63;4884496;29;4362;-85
2022/11/30 03:07:36;;;;;;;;;;;;;;;5.21;75.22;102167.44;4898160;29;4236;-85
2022/11/30 03:10:03;;;;;;;;;;;;;;;5.20;75.17;102169.25;4879069;29;4377;-85
2022/11/30 03:12:29;;;;;;;;;;;;;;;5.19;75.43;102164.06;4896612;29;4386;-86
2022/11/30 03:14:56;;;;;;;;;;;;;;;5.20;75.25;102174.59;4881792;29;4422;-85
2022/11/30 03:17:22;;;;;;;;;;;;;;;5.24;75.08;102167.16;4889781;29;4564;-85
2022/11/30 03:19:49;;;;;;;;;;;;;;;5.18;75.33;102167.75;4883384;29;4630;-84
2022/11/30 03:22:15;;;;;;;;;;;;;;;5.15;75.33;102176.88;4897716;29;4500;-85
2022/11/30 03:24:42;;;;;;;;;;;;;;;5.18;75.27;102181.94;4899481;29;4299;-85
2022/11/30 03:27:08;;;;;;;;;;;;;;;5.22;75.18;102183.31;4877123;29;4575;-85
2022/11/30 03:29:35;;;;;;;;;;;;;;;5.22;75.15;102180.66;4880488;29;4425;-85
2022/11/30 03:32:02;;;;;;;;;;;;;;;5.15;75.37;102182.22;4896616;29;4561;-84
2022/11/30 03:34:28;;;;;;;;;;;;;;;5.15;75.42;102184.91;4883667;29;3487;-85
2022/11/30 03:36:55;;;;;;;;;;;;;;;5.16;75.61;102188.41;4876680;29;4468;-86
2022/11/30 03:39:22;;;;;;;;;;;;;;;5.15;75.37;102192.06;4877779;29;4575;-86
2022/11/30 03:41:48;;;;;;;;;;;;;;;5.13;75.42;102192.22;4879080;29;4559;-86
2022/11/30 03:44:15;;;;;;;;;;;;;;;5.21;75.17;102199.50;4898189;29;4457;-85
2022/11/30 03:46:41;;;;;;;;;;;;;;;5.20;75.30;102197.81;4885780;29;4619;-86
2022/11/30 03:49:08;;;;;;;;;;;;;;;5.19;75.23;102199.63;4900091;29;4407;-85
2022/11/30 03:51:35;;;;;;;;;;;;;;;5.21;75.20;102196.84;4880887;29;4731;-86
2022/11/30 03:54:01;;;;;;;;;;;;;;;5.13;75.42;102192.22;4895568;29;4312;-85
2022/11/30 03:56:28;;;;;;;;;;;;;;;5.18;75.21;102195.28;4881555;29;4476;-87
2022/11/30 03:58:54;;;;;;;;;;;;;;;5.17;75.28;102196.25;4895473;29;4603;-85
2022/11/30 04:01:22;;;;;;;;;;;;;;;5.22;75.29;102198.50;4882006;29;4541;-85
2022/11/30 04:03:48;;;;;;;;;;;;;;;5.18;75.41;102199.81;4879106;29;4256;-83
2022/11/30 04:06:15;;;;;;;;;;;;;;;5.11;75.63;102190.66;4879569;29;4406;-85
2022/11/30 04:08:41;;;;;;;;;;;;;;;5.12;75.57;102192.38;4887745;29;4617;-85
2022/11/30 04:11:08;;;;;;;;;;;;;;;5.06;75.75;102196.44;4878932;29;4607;-84
2022/11/30 04:13:36;;;;;;;;;;;;;;;5.12;75.46;102195.88;4899428;29;4550;-85
2022/11/30 04:16:02;;;;;;;;;;;;;;;5.07;75.63;102195.44;4865638;29;4342;-85
2022/11/30 04:18:29;;;;;;;;;;;;;;;5.15;75.37;102189.41;4882452;29;4569;-85
2022/11/30 04:20:55;;;;;;;;;;;;;;;5.12;75.47;102193.19;4899739;29;4473;-85
2022/11/30 04:23:22;;;;;;;;;;;;;;;5.08;75.58;102186.44;4895097;29;4374;-85
2022/11/30 04:25:48;;;;;;;;;;;;;;;5.04;75.79;102194.91;4880993;29;4538;-85
2022/11/30 04:28:15;;;;;;;;;;;;;;;5.14;75.46;102193.88;4882130;29;4461;-84
2022/11/30 04:30:41;;;;;;;;;;;;;;;5.08;75.56;102198.97;4877349;29;4404;-85
2022/11/30 04:33:08;;;;;;;;;;;;;;;5.03;76.19;102201.22;4897110;29;4463;-85
2022/11/30 04:35:35;;;;;;;;;;;;;;;5.14;75.40;102207.22;4876677;29;4523;-86
2022/11/30 04:38:01;;;;;;;;;;;;;;;5.07;75.47;102198.13;4881484;29;3952;-86
2022/11/30 04:40:28;;;;;;;;;;;;;;;5.08;75.58;102196.28;4880479;29;4361;-85
2022/11/30 04:42:55;;;;;;;;;;;;;;;5.08;75.57;102201.63;4882482;29;4413;-85
2022/11/30 04:45:21;;;;;;;;;;;;;;;5.04;75.64;102205.59;4877742;29;4447;-85
2022/11/30 04:47:48;;;;;;;;;;;;;;;5.04;75.73;102198.41;4887718;29;4334;-86
2022/11/30 04:50:14;;;;;;;;;;;;;;;5.07;75.78;102202.63;4882670;29;3632;-86
2022/11/30 04:52:41;;;;;;;;;;;;;;;5.01;75.77;102202.22;4880604;29;4598;-85
2022/11/30 04:55:08;;;;;;;;;;;;;;;4.99;75.88;102198.81;4880845;29;4735;-87
2022/11/30 04:57:34;;;;;;;;;;;;;;;5.08;75.60;102196.28;4894728;29;4465;-88
2022/11/30 05:00:01;;;;;;;;;;;;;;;4.94;75.92;102200.25;4883684;29;4248;-87
2022/11/30 05:02:27;;;;;;;;;;;;;;;5.01;75.81;102198.69;4879538;29;4340;-87
2022/11/30 05:04:54;;;;;;;;;;;;;;;5.02;75.77;102195.03;4898817;29;4575;-88
2022/11/30 05:07:20;;;;;;;;;;;;;;;4.98;75.95;102196.31;4881278;29;4361;-87
2022/11/30 05:09:47;;;;;;;;;;;;;;;4.93;75.76;102196.72;4881970;29;4464;-87
2022/11/30 05:12:13;;;;;;;;;;;;;;;5.01;75.77;102196.03;4882833;29;4683;-88
2022/11/30 05:14:40;;;;;;;;;;;;;;;4.96;76.00;102190.25;4867836;29;4484;-88
2022/11/30 05:17:07;;;;;;;;;;;;;;;4.93;76.14;102191.38;4884991;29;4493;-90
2022/11/30 05:19:36;;;;;;;;;;;;;;;4.95;76.15;102196.59;4879248;29;4559;-89
2022/11/30 05:22:04;;;;;;;;;;;;;;;4.95;76.09;102199.28;4898274;29;3955;-88
2022/11/30 05:24:33;;;;;;;;;;;;;;;4.95;76.18;102202.78;4891929;29;4241;-88
2022/11/30 05:33:29;;;;;;;;;;;;;;;4.95;76.15;102205.44;4910916;29;2315;-90
2022/11/30 05:39:04;;;;;;;;;;;;;;;5.04;75.71;102206.44;4900980;29;2278;-89
2022/11/30 05:41:45;;;;;;;;;;;;;;;4.98;75.83;102207.84;4910078;29;1918;-89
2022/11/30 05:47:13;;;;;;;;;;;;;;;5.03;75.74;102207.41;4919802;29;1454;-90
2022/11/30 05:49:46;;;;;;;;;;;;;;;5.04;75.95;102210.94;4928329;29;3234;-90
2022/11/30 05:54:58;;;;;;;;;;;;;;;5.08;75.72;102221.16;4910410;29;2116;-89
2022/11/30 05:57:25;;;;;;;;;;;;;;;5.15;75.26;102216.13;4911314;29;3170;-91
2022/11/30 05:59:53;;;;;;;;;;;;;;;5.14;75.20;102223.25;4909925;29;3949;-91
2022/11/30 06:02:26;;;;;;;;;;;;;;;5.09;75.31;102222.00;4938253;29;1983;-91
2022/11/30 06:04:57;;;;;;;;;;;;;;;5.12;75.33;102225.25;4914308;29;1686;-90
2022/11/30 06:07:26;;;;;;;;;;;;;;;5.13;75.25;102228.75;4910206;29;1841;-91
2022/11/30 06:09:53;;;;;;;;;;;;;;;5.12;75.33;102227.94;4923176;29;3362;-89
2022/11/30 06:12:21;;;;;;;;;;;;;;;5.11;75.38;102242.25;4925775;29;2274;-91
2022/11/30 06:14:49;;;;;;;;;;;;;;;5.19;75.20;102231.69;4896844;29;2305;-90
2022/11/30 06:17:16;;;;;;;;;;;;;;;5.10;75.45;102227.22;4924862;29;3525;-90
2022/11/30 06:19:43;;;;;;;;;;;;;;;5.11;75.34;102239.56;4916440;29;2572;-90
2022/11/30 06:22:10;;;;;;;;;;;;;;;5.14;75.44;102238.44;4916109;29;3524;-90
2022/11/30 06:24:36;;;;;;;;;;;;;;;5.28;74.76;102243.34;4914243;29;2342;-89
2022/11/30 06:27:04;;;;;;;;;;;;;;;5.18;75.25;102245.22;4882545;29;3663;-89
2022/11/30 06:29:31;;;;;;;;;;;;;;;5.14;75.21;102236.63;4902972;29;1927;-91
2022/11/30 06:31:58;;;;;;;;;;;;;;;5.08;75.55;102245.19;4915363;29;2239;-87
2022/11/30 06:34:26;;;;;;;;;;;;;;;5.13;75.29;102245.63;4885212;29;3570;-90
2022/11/30 06:36:54;;;;;;;;;;;;;;;5.15;75.32;102250.84;4916372;29;3387;-89
2022/11/30 06:39:21;;;;;;;;;;;;;;;5.18;74.99;102248.72;4920181;29;3354;-90
2022/11/30 06:41:49;;;;;;;;;;;;;;;5.18;75.16;102254.06;4925166;29;3544;-90
2022/11/30 06:44:17;;;;;;;;;;;;;;;5.18;75.22;102256.72;4892745;29;3820;-90
2022/11/30 06:46:44;;;;;;;;;;;;;;;5.20;75.15;102251.22;4923692;29;3318;-90
2022/11/30 06:49:13;;;;;;;;;;;;;;;5.18;75.09;102264.75;4900343;29;1836;-90
2022/11/30 06:51:40;;;;;;;;;;;;;;;5.27;74.71;102259.53;4919536;29;3679;-90
2022/11/30 06:54:07;;;;;;;;;;;;;;;5.28;74.90;102267.41;4924506;29;3752;-89
2022/11/30 06:56:38;;;;;;;;;;;;;;;5.29;74.72;102270.91;4923945;29;3672;-89
2022/11/30 06:59:04;;;;;;;;;;;;;;;5.21;75.08;102271.63;4920829;29;3490;-89
2022/11/30 07:01:31;;;;;;;;;;;;;;;5.23;74.90;102275.84;4918682;29;1915;-90
2022/11/30 07:04:00;;;;;;;;;;;;;;;5.30;74.61;102273.44;4921162;29;3762;-90
2022/11/30 07:06:27;;;;;;;;;;;;;;;5.33;74.40;102273.16;4917552;29;2654;-92
2022/11/30 07:08:54;;;;;;;;;;;;;;;5.33;74.68;102267.81;4881598;29;3649;-90
2022/11/30 07:11:20;;;;;;;;;;;;;;;5.32;74.62;102268.78;4898168;29;3765;-89
2022/11/30 07:13:47;;;;;;;;;;;;;;;5.32;74.59;102273.28;4913875;29;3908;-90
2022/11/30 07:16:14;;;;;;;;;;;;;;;5.32;74.63;102274.13;4914319;29;3629;-89
2022/11/30 07:18:41;;;;;;;;;;;;;;;5.39;74.37;102274.41;4912872;29;3984;-90
2022/11/30 07:21:08;;;;;;;;;;;;;;;5.29;74.54;102274.41;4916474;29;3539;-90
2022/11/30 07:26:21;;;;;;;;;;;;;;;5.21;75.02;102275.16;4884460;29;3878;-91
2022/11/30 07:28:50;;;;;;;;;;;;;;;5.28;74.79;102279.91;4918966;29;3974;-90
2022/11/30 07:31:17;;;;;;;;;;;;;;;5.33;74.58;102281.19;4921290;29;2779;-91
2022/11/30 07:33:43;;;;;;;;;;;;;;;5.25;74.87;102281.03;4918407;29;3654;-90
2022/11/30 07:36:10;;;;;;;;;;;;;;;5.27;74.84;102276.41;4918092;29;4937;-90
2022/11/30 07:38:37;;;;;;;;;;;;;;;5.36;74.29;102280.88;4917315;29;3988;-91
2022/11/30 07:41:04;;;;;;;;;;;;;;;5.36;74.61;102283.56;4886863;29;3824;-91
2022/11/30 07:43:31;;;;;;;;;;;;;;;5.28;74.78;102293.28;4891733;29;3913;-88
2022/11/30 07:45:58;;;;;;;;;;;;;;;5.30;74.71;102296.66;4909971;29;4698;-90
2022/11/30 07:48:25;;;;;;;;;;;;;;;5.38;74.38;102299.44;4904149;29;4082;-89
2022/11/30 07:50:52;;;;;;;;;;;;;;;5.28;74.61;102291.44;4904593;29;4731;-90
2022/11/30 07:53:22;;;;;;;;;;;;;;;5.44;74.34;102290.84;4892603;29;3727;-89
2022/11/30 07:55:49;;;;;;;;;;;;;;;5.38;74.14;102294.09;4912538;29;3854;-88
2022/11/30 07:58:16;;;;;;;;;;;;;;;5.30;74.70;102302.00;4910309;29;3948;-88
2022/11/30 08:00:43;;;;;;;;;;;;;;;5.34;74.77;102304.22;4917613;29;3844;-88
2022/11/30 08:03:09;;;;;;;;;;;;;;;5.34;74.61;102303.38;4880061;29;4671;-89
2022/11/30 08:08:33;;;;;;;;;;;;;;;5.33;74.61;102312.41;4891384;29;4714;-90
2022/11/30 08:11:00;;;;;;;;;;;;;;;5.31;74.68;102309.84;4884100;29;4601;-89
2022/11/30 08:13:27;;;;;;;;;;;;;;;5.26;74.85;102312.09;4905977;29;4762;-90
2022/11/30 08:15:54;;;;;;;;;;;;;;;5.29;74.95;102319.00;4891637;29;4113;-89
2022/11/30 08:18:21;;;;;;;;;;;;;;;5.23;74.81;102315.94;4906148;29;3816;-89
2022/11/30 08:20:47;;;;;;;;;;;;;;;5.24;74.97;102316.75;4875625;29;3749;-89
2022/11/30 08:23:14;;;;;;;;;;;;;;;5.32;74.66;102321.38;4908761;29;4463;-90
2022/11/30 08:25:40;;;;;;;;;;;;;;;5.17;75.13;102320.97;4907466;29;4761;-89
2022/11/30 08:28:07;;;;;;;;;;;;;;;5.19;75.26;102321.69;4910216;29;3654;-89
2022/11/30 08:30:33;;;;;;;;;;;;;;;5.24;75.01;102322.94;4908815;29;3708;-89
2022/11/30 08:33:00;;;;;;;;;;;;;;;5.21;75.05;102325.91;4894366;29;3861;-90
2022/11/30 08:35:27;;;;;;;;;;;;;;;5.24;74.80;102330.97;4879998;29;3249;-89
2022/11/30 08:37:53;;;;;;;;;;;;;;;5.28;74.81;102336.03;4880935;29;2304;-89
2022/11/30 08:40:20;;;;;;;;;;;;;;;5.24;74.97;102340.81;4894795;29;3984;-90
2022/11/30 08:42:47;;;;;;;;;;;;;;;5.13;75.29;102339.13;4913153;29;4698;-90
2022/11/30 08:45:14;;;;;;;;;;;;;;;5.25;74.76;102339.81;4886039;29;3883;-89
2022/11/30 08:47:41;;;;;;;;;;;;;;;5.21;74.95;102335.75;4921142;29;3726;-88
2022/11/30 08:50:07;;;;;;;;;;;;;;;5.20;75.11;102334.03;4900955;29;4433;-90
2022/11/30 08:52:34;;;;;;;;;;;;;;;5.20;75.11;102336.72;4896430;29;4764;-89
2022/11/30 08:55:07;;;;;;;;;;;;;;;5.13;75.39;102336.44;4892238;29;4755;-89
2022/11/30 08:57:34;;;;;;;;;;;;;;;5.17;75.25;102339.66;4882144;29;4809;-89
2022/11/30 09:00:01;;;;;;;;;;;;;;;5.18;75.07;102339.53;4863565;29;4867;-87
2022/11/30 09:02:27;;;;;;;;;;;;;;;5.23;74.98;102329.28;4859676;29;4778;-87
2022/11/30 09:04:54;;;;;;;;;;;;;;;5.16;75.14;102338.84;4845310;29;4743;-86
2022/11/30 09:07:21;;;;;;;;;;;;;;;5.27;74.99;102339.69;4858419;29;5007;-85
2022/11/30 09:09:48;;;;;;;;;;;;;;;5.27;75.04;102345.03;4860810;29;5013;-84
2022/11/30 09:12:14;;;;;;;;;;;;;;;5.18;75.20;102344.03;4858162;29;4710;-85
2022/11/30 09:14:41;;;;;;;;;;;;;;;5.14;75.37;102347.97;4858247;29;4856;-86
2022/11/30 09:17:08;;;;;;;;;;;;;;;5.30;74.80;102342.06;4861157;29;4826;-85
2022/11/30 09:19:34;;;;;;;;;;;;;;;5.27;74.82;102350.38;4864113;29;3875;-86
2022/11/30 09:22:01;;;;;;;;;;;;;;;5.24;75.01;102349.66;4861494;29;4379;-87
2022/11/30 09:24:27;;;;;;;;;;;;;;;5.16;75.16;102354.03;4863141;29;4680;-87
2022/11/30 09:26:54;;;;;;;;;;;;;;;5.16;75.15;102357.53;4862925;29;3909;-88
2022/11/30 09:29:21;;;;;;;;;;;;;;;5.13;75.66;102357.81;4883179;29;4518;-88
2022/11/30 09:31:50;;;;;;;;;;;;;;;5.16;75.07;102351.34;4866206;29;4849;-88
2022/11/30 09:34:16;;;;;;;;;;;;;;;5.22;75.07;102346.28;4858357;29;3983;-87
2022/11/30 09:36:44;;;;;;;;;;;;;;;5.22;75.19;102356.13;4872380;29;4978;-88
2022/11/30 09:39:13;;;;;;;;;;;;;;;5.16;75.17;102354.03;4891275;29;4007;-88
2022/11/30 09:41:40;;;;;;;;;;;;;;;5.18;75.11;102354.72;4875436;29;4826;-89
2022/11/30 09:44:09;;;;;;;;;;;;;;;5.09;75.38;102364.44;4869048;29;3704;-89
2022/11/30 09:46:36;;;;;;;;;;;;;;;5.15;75.13;102355.84;4879060;29;4782;-89
2022/11/30 09:49:05;;;;;;;;;;;;;;;5.14;75.39;102351.47;4885780;29;4428;-88
2022/11/30 09:51:36;;;;;;;;;;;;;;;5.20;75.14;102358.91;4882810;29;3962;-90
2022/11/30 09:54:07;;;;;;;;;;;;;;;5.10;75.67;102354.59;4868271;29;3900;-89
2022/11/30 09:56:36;;;;;;;;;;;;;;;5.21;75.31;102357.97;4894080;29;3887;-89
2022/11/30 09:59:06;;;;;;;;;;;;;;;5.15;75.25;102355.84;4905912;29;2838;-90
2022/11/30 10:01:34;;;;;;;;;;;;;;;5.08;75.53;102357.38;4915495;29;2380;-89
2022/11/30 10:04:01;;;;;;;;;;;;;;;5.08;75.40;102356.53;4916467;29;2055;-89
2022/11/30 10:06:29;;;;;;;;;;;;;;;5.08;75.52;102349.38;4916674;29;3839;-90
2022/11/30 10:08:56;;;;;;;;;;;;;;;5.13;75.34;102359.63;4913277;29;2215;-90
2022/11/30 10:11:23;;;;;;;;;;;;;;;5.10;75.70;102359.91;4884258;29;3976;-88
2022/11/30 10:13:50;;;;;;;;;;;;;;;5.10;75.61;102363.44;4913562;29;4027;-90
2022/11/30 10:16:17;;;;;;;;;;;;;;;5.06;75.66;102363.84;4895157;29;4485;-90
2022/11/30 10:18:44;;;;;;;;;;;;;;;5.01;75.67;102359.78;4913903;29;4950;-90
2022/11/30 10:21:10;;;;;;;;;;;;;;;5.08;75.52;102360.03;4883001;29;2077;-90
2022/11/30 10:23:37;;;;;;;;;;;;;;;5.12;75.27;102355.28;4880877;29;3574;-90
2022/11/30 10:26:04;;;;;;;;;;;;;;;5.18;75.10;102362.75;4895058;29;3637;-89
2022/11/30 10:28:30;;;;;;;;;;;;;;;5.15;75.35;102363.88;4912142;29;4073;-90
2022/11/30 10:30:57;;;;;;;;;;;;;;;4.99;75.77;102367.06;4911403;29;4548;-89
2022/11/30 10:33:24;;;;;;;;;;;;;;;5.07;75.48;102370.88;4912445;29;2452;-89
2022/11/30 10:35:51;;;;;;;;;;;;;;;5.10;75.47;102365.25;4888615;29;3937;-91
2022/11/30 10:38:17;;;;;;;;;;;;;;;5.11;75.46;102369.63;4879561;29;3900;-89
2022/11/30 10:40:44;;;;;;;;;;;;;;;5.05;75.74;102367.50;4908836;29;4825;-90
2022/11/30 10:43:11;;;;;;;;;;;;;;;5.06;75.44;102374.53;4906914;29;4485;-89
2022/11/30 10:45:38;;;;;;;;;;;;;;;5.00;75.79;102376.78;4902440;29;4723;-89
2022/11/30 10:48:04;;;;;;;;;;;;;;;5.05;75.80;102380.84;4908892;29;3720;-90
2022/11/30 10:50:31;;;;;;;;;;;;;;;5.08;75.59;102377.91;4913643;29;3832;-89
2022/11/30 10:52:57;;;;;;;;;;;;;;;5.04;75.51;102385.34;4873497;29;3738;-89
2022/11/30 10:55:24;;;;;;;;;;;;;;;5.00;75.80;102384.78;4905256;29;4314;-88
2022/11/30 10:57:51;;;;;;;;;;;;;;;5.01;75.83;102381.13;4912367;29;4814;-89
2022/11/30 11:00:19;;;;;;;;;;;;;;;5.03;75.71;102381.00;4906713;29;3888;-89
2022/11/30 11:02:46;;;;;;;;;;;;;;;5.01;75.75;102388.31;4890280;29;4302;-90
2022/11/30 11:05:13;;;;;;;;;;;;;;;4.96;75.97;102382.53;4888175;29;3609;-90
2022/11/30 11:07:40;;;;;;;;;;;;;;;4.99;75.94;102384.91;4870306;29;3958;-89
2022/11/30 11:10:06;;;;;;;;;;;;;;;4.96;76.14;102377.19;4909086;29;3824;-89
2022/11/30 11:12:33;;;;;;;;;;;;;;;4.97;75.85;102382.41;4905782;29;3976;-89
2022/11/30 11:14:59;;;;;;;;;;;;;;;5.03;75.66;102385.47;4914816;29;3992;-90
2022/11/30 11:17:27;;;;;;;;;;;;;;;4.98;75.99;102381.41;4891470;29;4750;-88
2022/11/30 11:19:54;;;;;;;;;;;;;;;4.99;76.06;102384.91;4903215;29;3824;-90
2022/11/30 11:22:21;;;;;;;;;;;;;;;4.97;75.85;102387.75;4906923;29;3848;-90
2022/11/30 11:24:48;;;;;;;;;;;;;;;4.98;76.02;102386.75;4906169;29;4283;-90
2022/11/30 11:27:15;;;;;;;;;;;;;;;4.95;75.92;102386.19;4889300;29;2875;-90
2022/11/30 11:29:42;;;;;;;;;;;;;;;4.99;75.69;102383.09;4909277;29;3861;-88
2022/11/30 11:32:09;;;;;;;;;;;;;;;4.96;75.99;102379.84;4907450;29;3861;-89
2022/11/30 11:34:35;;;;;;;;;;;;;;;5.01;75.84;102386.47;4906429;29;3757;-89
2022/11/30 11:37:02;;;;;;;;;;;;;;;4.95;75.93;102381.69;4876953;29;3911;-88
2022/11/30 11:39:29;;;;;;;;;;;;;;;4.94;76.09;102382.69;4904805;29;4712;-90
2022/11/30 11:41:56;;;;;;;;;;;;;;;4.92;76.05;102379.31;4907329;29;4685;-90
2022/11/30 11:44:22;;;;;;;;;;;;;;;4.93;76.08;102375.63;4893947;29;3917;-89
2022/11/30 11:46:49;;;;;;;;;;;;;;;4.93;76.03;102378.31;4911859;29;4563;-88
2022/11/30 11:49:16;;;;;;;;;;;;;;;4.90;76.15;102385.75;4907695;29;3971;-89
2022/11/30 11:51:44;;;;;;;;;;;;;;;4.98;76.01;102385.91;4911210;29;3744;-91
2022/11/30 11:54:12;;;;;;;;;;;;;;;4.90;76.24;102385.75;4892802;29;4293;-90
2022/11/30 11:56:39;;;;;;;;;;;;;;;4.92;75.97;102379.31;4911770;29;3359;-90
2022/11/30 11:59:06;;;;;;;;;;;;;;;4.93;76.07;102385.47;4899088;29;3954;-89
2022/11/30 12:01:32;;;;;;;;;;;;;;;4.92;76.01;102378.47;4876301;29;4776;-90
2022/11/30 12:03:59;;;;;;;;;;;;;;;4.98;75.79;102380.56;4913710;29;4739;-88
2022/11/30 12:06:26;;;;;;;;;;;;;;;4.94;75.94;102384.47;4888638;29;2277;-90
2022/11/30 12:08:53;;;;;;;;;;;;;;;4.93;76.22;102382.81;4904049;29;3658;-88
2022/11/30 12:11:19;;;;;;;;;;;;;;;4.99;75.86;102390.25;4913517;29;4612;-89
2022/11/30 12:13:46;;;;;;;;;;;;;;;5.01;75.74;102383.81;4904193;29;4462;-89
2022/11/30 12:16:13;;;;;;;;;;;;;;;4.94;75.81;102389.81;4906071;29;3748;-90
2022/11/30 12:18:40;;;;;;;;;;;;;;;5.03;75.55;102382.81;4886292;29;4926;-89
2022/11/30 12:21:07;;;;;;;;;;;;;;;5.00;75.72;102390.13;4886800;29;3983;-89
2022/11/30 12:23:33;;;;;;;;;;;;;;;4.95;76.03;102384.38;4885959;29;3880;-88
2022/11/30 12:26:00;;;;;;;;;;;;;;;4.94;76.07;102385.34;4873122;29;4596;-89
2022/11/30 12:28:27;;;;;;;;;;;;;;;4.92;76.12;102389.97;4906188;29;3839;-89
2022/11/30 12:30:54;;;;;;;;;;;;;;;4.90;76.24;102383.91;4886666;29;4730;-90
2022/11/30 12:33:21;;;;;;;;;;;;;;;5.00;75.93;102386.63;4888674;29;3884;-89
2022/11/30 12:35:47;;;;;;;;;;;;;;;5.06;75.57;102382.53;4888045;29;3893;-89
2022/11/30 12:38:14;;;;;;;;;;;;;;;4.21;76.40;102383.84;4903457;29;4708;-88
2022/11/30 12:40:40;;;;;;;;;;;;;;;4.90;75.28;102383.09;4903214;29;4647;-88
2022/11/30 12:43:07;;;;;;;;;;;;;;;4.92;75.46;102384.63;4884477;29;4578;-89
2022/11/30 12:45:34;;;;;;;;;;;;;;;4.92;75.50;102384.63;4906833;29;3573;-89
2022/11/30 12:48:01;;;;;;;;;;;;;;;4.92;75.53;102387.31;4888153;29;3427;-91
2022/11/30 12:50:28;;;;;;;;;;;;;;;5.03;75.32;102383.69;4902095;29;4347;-90
2022/11/30 12:52:55;;;;;;;;;;;;;;;5.00;75.42;102389.31;4883798;29;4640;-90
2022/11/30 12:55:22;;;;;;;;;;;;;;;5.08;75.12;102383.25;4904842;29;3532;-88
2022/11/30 12:57:48;;;;;;;;;;;;;;;5.12;75.04;102379.34;4907506;29;3491;-88
2022/11/30 13:00:16;;;;;;;;;;;;;;;5.09;75.37;102376.91;4888196;29;3545;-91
2022/11/30 13:02:43;;;;;;;;;;;;;;;5.10;75.05;102379.47;4898270;29;4065;-88
2022/11/30 13:05:11;;;;;;;;;;;;;;;5.14;75.13;102377.34;4862657;29;4535;-91
2022/11/30 13:07:38;;;;;;;;;;;;;;;5.20;74.79;102376.78;4885907;29;3594;-89
2022/11/30 13:10:05;;;;;;;;;;;;;;;5.19;74.97;102378.63;4887270;29;4418;-89
2022/11/30 13:12:34;;;;;;;;;;;;;;;5.15;75.13;102379.06;4883394;29;4052;-89
2022/11/30 13:15:01;;;;;;;;;;;;;;;5.13;75.07;102386.34;4902804;29;4583;-88
2022/11/30 13:17:30;;;;;;;;;;;;;;;5.27;74.83;102379.75;4904707;29;4524;-87
2022/11/30 13:20:21;;;;;;;;;;;;;;;5.22;74.88;102388.19;4885363;29;4492;-88
2022/11/30 13:23:12;;;;;;;;;;;;;;;5.26;74.85;102394.94;4884984;29;3921;-88
2022/11/30 13:26:04;;;;;;;;;;;;;;;5.29;74.61;102391.97;4885060;29;3774;-87
2022/11/30 13:28:56;;;;;;;;;;;;;;;5.33;74.66;102396.06;4884984;29;4588;-89